createdAt,value
2017-04-13T00:00:23.111Z,9.21
2017-04-13T00:01:23.093Z,9.13
2017-04-13T00:02:22.781Z,9.13
2017-04-13T00:03:23.078Z,9.18
2017-04-13T00:04:23.069Z,9.17
2017-04-13T00:05:23.059Z,9.2
2017-04-13T00:06:23.051Z,9.18
2017-04-13T00:07:23.047Z,9.2
2017-04-13T00:08:23.033Z,9.13
2017-04-13T00:09:23.023Z,9.2
2017-04-13T00:10:23.015Z,9.18
2017-04-13T00:11:23.008Z,9.2
2017-04-13T00:12:22.996Z,9.11
2017-04-13T00:13:22.684Z,9.2
2017-04-13T00:14:22.981Z,9.2
2017-04-13T00:15:22.968Z,9.17
2017-04-13T00:16:22.962Z,9.18
2017-04-13T00:17:22.953Z,9.24
2017-04-13T00:18:22.944Z,9.18
2017-04-13T00:19:22.937Z,9.17
2017-04-13T00:20:22.972Z,9.15
2017-04-13T00:21:22.923Z,9.17
2017-04-13T00:22:22.915Z,9.21
2017-04-13T00:23:22.900Z,9.11
2017-04-13T00:24:22.588Z,9.24
2017-04-13T00:25:22.884Z,9.28
2017-04-13T00:26:22.876Z,9.24
2017-04-13T00:27:22.868Z,9.23
2017-04-13T00:28:22.856Z,9.32
2017-04-13T00:29:22.846Z,9.23
2017-04-13T00:30:22.838Z,9.26
2017-04-13T00:31:22.825Z,9.35
2017-04-13T00:32:22.821Z,9.32
2017-04-13T00:33:22.812Z,9.29
2017-04-13T00:34:22.499Z,9.29
2017-04-13T00:35:22.799Z,9.36
2017-04-13T00:36:22.783Z,9.33
2017-04-13T00:37:22.774Z,9.31
2017-04-13T00:38:22.771Z,9.32
2017-04-13T00:39:22.757Z,9.36
2017-04-13T00:40:22.744Z,9.38
2017-04-13T00:41:22.737Z,9.38
2017-04-13T00:42:22.729Z,9.35
2017-04-13T00:43:22.723Z,9.35
2017-04-13T00:44:22.715Z,9.33
2017-04-13T00:45:22.702Z,9.36
2017-04-13T00:46:22.692Z,9.42
2017-04-13T00:47:22.683Z,9.32
2017-04-13T00:48:22.678Z,9.35
2017-04-13T00:49:22.668Z,9.29
2017-04-13T00:50:22.656Z,9.42
2017-04-13T00:51:22.652Z,9.31
2017-04-13T00:52:22.639Z,9.35
2017-04-13T00:53:22.633Z,9.35
2017-04-13T00:54:22.321Z,9.36
2017-04-13T00:55:22.614Z,9.33
2017-04-13T00:56:22.604Z,9.32
2017-04-13T00:57:22.594Z,9.17
2017-04-13T00:58:22.590Z,9.17
2017-04-13T00:59:22.578Z,9.17
2017-04-13T01:00:22.566Z,9.13
2017-04-13T01:01:22.560Z,9.02
2017-04-13T01:02:22.551Z,9.04
2017-04-13T01:03:22.540Z,8.98
2017-04-13T01:04:22.532Z,8.94
2017-04-13T01:05:22.523Z,8.84
2017-04-13T01:06:22.515Z,8.8
2017-04-13T01:07:22.504Z,8.73
2017-04-13T01:08:22.493Z,8.59
2017-04-13T01:09:22.487Z,8.62
2017-04-13T01:10:22.476Z,8.5
2017-04-13T01:11:22.466Z,8.45
2017-04-13T01:12:22.461Z,8.53
2017-04-13T01:13:22.449Z,8.4
2017-04-13T01:14:22.439Z,8.5
2017-04-13T01:15:22.431Z,8.41
2017-04-13T01:16:22.430Z,8.44
2017-04-13T01:17:22.412Z,8.38
2017-04-13T01:18:22.404Z,8.43
2017-04-13T01:19:22.395Z,8.41
2017-04-13T01:20:22.385Z,8.36
2017-04-13T01:21:22.377Z,8.3
2017-04-13T01:22:22.364Z,8.28
2017-04-13T01:23:22.360Z,8.15
2017-04-13T01:24:22.348Z,8.18
2017-04-13T01:25:22.338Z,8.01
2017-04-13T01:26:22.329Z,8.04
2017-04-13T01:27:22.320Z,8.07
2017-04-13T01:28:22.310Z,8
2017-04-13T01:29:22.303Z,8.05
2017-04-13T01:30:22.290Z,8.02
2017-04-13T01:31:22.279Z,8.02
2017-04-13T01:32:22.272Z,8
2017-04-13T01:33:22.260Z,7.98
2017-04-13T01:34:22.255Z,8.02
2017-04-13T01:35:22.242Z,8.05
2017-04-13T01:36:22.237Z,8.01
2017-04-13T01:37:22.226Z,8.02
2017-04-13T01:38:22.214Z,7.98
2017-04-13T01:39:22.206Z,8
2017-04-13T01:40:22.195Z,8.15
2017-04-13T01:41:22.183Z,8.02
2017-04-13T01:42:22.174Z,8.05
2017-04-13T01:43:22.172Z,8.11
2017-04-13T01:44:22.155Z,8.22
2017-04-13T01:45:22.146Z,8.23
2017-04-13T01:46:22.135Z,8.22
2017-04-13T01:47:22.125Z,8.25
2017-04-13T01:48:22.116Z,8.36
2017-04-13T01:49:22.104Z,8.3
2017-04-13T01:50:22.098Z,8.33
2017-04-13T01:51:22.096Z,8.3
2017-04-13T01:52:22.083Z,8.28
2017-04-13T01:53:22.075Z,8.29
2017-04-13T01:54:22.062Z,8.33
2017-04-13T01:55:22.054Z,8.28
2017-04-13T01:56:22.041Z,8.36
2017-04-13T01:57:22.031Z,8.28
2017-04-13T01:58:22.030Z,8.33
2017-04-13T01:59:22.013Z,8.29
2017-04-13T02:00:22.003Z,8.29
2017-04-13T02:01:21.995Z,8.33
2017-04-13T02:02:21.981Z,8.25
2017-04-13T02:03:21.971Z,8.33
2017-04-13T02:04:21.963Z,8.29
2017-04-13T02:05:21.960Z,8.33
2017-04-13T02:06:21.943Z,8.3
2017-04-13T02:07:21.933Z,8.29
2017-04-13T02:08:21.925Z,8.26
2017-04-13T02:09:21.915Z,8.28
2017-04-13T02:10:21.907Z,8.34
2017-04-13T02:11:21.896Z,8.26
2017-04-13T02:12:21.888Z,8.33
2017-04-13T02:13:21.883Z,8.26
2017-04-13T02:14:21.869Z,8.33
2017-04-13T02:15:21.860Z,8.29
2017-04-13T02:16:21.851Z,8.29
2017-04-13T02:17:21.839Z,8.25
2017-04-13T02:18:21.833Z,8.28
2017-04-13T02:19:21.824Z,8.28
2017-04-13T02:20:21.812Z,8.28
2017-04-13T02:21:21.799Z,8.3
2017-04-13T02:22:21.791Z,8.34
2017-04-13T02:23:21.781Z,8.29
2017-04-13T02:24:21.772Z,8.28
2017-04-13T02:25:21.811Z,8.3
2017-04-13T02:26:21.753Z,8.29
2017-04-13T02:27:21.742Z,8.25
2017-04-13T02:28:21.734Z,8.19
2017-04-13T02:29:21.724Z,8.12
2017-04-13T02:30:21.713Z,8.16
2017-04-13T02:31:21.706Z,8.11
2017-04-13T02:32:21.696Z,7.98
2017-04-13T02:33:21.684Z,8.02
2017-04-13T02:34:21.675Z,8
2017-04-13T02:35:21.664Z,8
2017-04-13T02:36:21.660Z,7.98
2017-04-13T02:37:21.648Z,8.01
2017-04-13T02:38:21.638Z,8.02
2017-04-13T02:39:21.625Z,8.02
2017-04-13T02:40:21.618Z,8.15
2017-04-13T02:41:21.607Z,8.23
2017-04-13T02:42:21.596Z,8.15
2017-04-13T02:43:21.589Z,8.19
2017-04-13T02:44:21.577Z,8.16
2017-04-13T02:45:21.568Z,8.2
2017-04-13T02:46:21.561Z,8.2
2017-04-13T02:47:21.250Z,8.29
2017-04-13T02:48:21.538Z,8.34
2017-04-13T02:49:21.530Z,8.22
2017-04-13T02:50:21.522Z,8.18
2017-04-13T02:51:21.511Z,8.26
2017-04-13T02:52:21.501Z,8.25
2017-04-13T02:53:21.492Z,8.12
2017-04-13T02:54:21.483Z,8.19
2017-04-13T02:55:21.471Z,8.12
2017-04-13T02:56:21.461Z,8.15
2017-04-13T02:57:21.453Z,8.12
2017-04-13T02:58:21.443Z,8.16
2017-04-13T02:59:21.431Z,8.16
2017-04-13T03:00:21.424Z,8.16
2017-04-13T03:01:21.412Z,8.15
2017-04-13T03:02:21.453Z,8.16
2017-04-13T03:03:21.402Z,8.12
2017-04-13T03:04:21.385Z,8.16
2017-04-13T03:05:21.374Z,8.19
2017-04-13T03:06:21.363Z,8.18
2017-04-13T03:07:21.397Z,8.11
2017-04-13T03:08:21.345Z,8.16
2017-04-13T03:09:21.335Z,8.2
2017-04-13T03:10:21.325Z,8.19
2017-04-13T03:11:21.315Z,8.15
2017-04-13T03:12:21.306Z,8.18
2017-04-13T03:13:21.303Z,8.15
2017-04-13T03:14:21.290Z,8.04
2017-04-13T03:15:21.277Z,8.04
2017-04-13T03:16:21.268Z,8.04
2017-04-13T03:17:21.256Z,8
2017-04-13T03:18:21.252Z,8.05
2017-04-13T03:19:20.935Z,7.98
2017-04-13T03:20:20.926Z,8
2017-04-13T03:21:21.220Z,7.98
2017-04-13T03:22:21.208Z,8.02
2017-04-13T03:23:21.202Z,8.04
2017-04-13T03:24:21.193Z,8.02
2017-04-13T03:25:21.188Z,8.07
2017-04-13T03:26:21.176Z,8.01
2017-04-13T03:27:21.163Z,8.08
2017-04-13T03:28:21.153Z,8
2017-04-13T03:29:21.149Z,8.02
2017-04-13T03:30:21.131Z,8
2017-04-13T03:31:21.124Z,8
2017-04-13T03:32:21.114Z,8.05
2017-04-13T03:33:21.103Z,8.12
2017-04-13T03:34:21.094Z,8.15
2017-04-13T03:35:21.084Z,8.16
2017-04-13T03:36:21.076Z,8.15
2017-04-13T03:37:21.063Z,8.26
2017-04-13T03:38:21.053Z,8.22
2017-04-13T03:39:21.045Z,8.26
2017-04-13T03:40:21.037Z,8.37
2017-04-13T03:41:21.027Z,8.3
2017-04-13T03:42:21.014Z,8.34
2017-04-13T03:43:21.006Z,8.36
2017-04-13T03:44:20.999Z,8.5
2017-04-13T03:45:20.691Z,8.36
2017-04-13T03:46:20.982Z,8.34
2017-04-13T03:47:20.967Z,8.37
2017-04-13T03:48:20.955Z,8.36
2017-04-13T03:49:20.950Z,8.34
2017-04-13T03:50:20.938Z,8.33
2017-04-13T03:51:20.927Z,8.29
2017-04-13T03:52:20.921Z,8.15
2017-04-13T03:53:20.907Z,8.1
2017-04-13T03:54:20.599Z,8
2017-04-13T03:55:20.889Z,8.07
2017-04-13T03:56:20.931Z,7.93
2017-04-13T03:57:20.869Z,7.97
2017-04-13T03:58:20.866Z,7.86
2017-04-13T03:59:20.855Z,7.82
2017-04-13T04:00:20.855Z,7.77
2017-04-13T04:01:20.830Z,7.69
2017-04-13T04:02:20.520Z,7.6
2017-04-13T04:03:20.812Z,7.61
2017-04-13T04:04:20.802Z,7.55
2017-04-13T04:05:20.791Z,7.57
2017-04-13T04:06:20.783Z,7.53
2017-04-13T04:07:20.774Z,7.43
2017-04-13T04:08:20.765Z,7.39
2017-04-13T04:09:20.752Z,7.32
2017-04-13T04:10:20.741Z,7.24
2017-04-13T04:11:20.983Z,7.27
2017-04-13T04:12:20.723Z,7.17
2017-04-13T04:13:20.711Z,7.12
2017-04-13T04:14:20.700Z,7.13
2017-04-13T04:15:20.692Z,7.06
2017-04-13T04:16:20.682Z,7.1
2017-04-13T04:17:20.368Z,7.07
2017-04-13T04:18:20.661Z,7.05
2017-04-13T04:19:20.656Z,6.92
2017-04-13T04:20:20.644Z,6.99
2017-04-13T04:21:20.636Z,6.88
2017-04-13T04:22:20.624Z,6.85
2017-04-13T04:23:20.616Z,6.76
2017-04-13T04:24:20.602Z,6.87
2017-04-13T04:25:20.589Z,6.8
2017-04-13T04:26:20.583Z,6.84
2017-04-13T04:27:20.572Z,6.95
2017-04-13T04:28:20.564Z,6.92
2017-04-13T04:29:20.548Z,6.97
2017-04-13T04:30:20.538Z,7.06
2017-04-13T04:31:20.529Z,7.09
2017-04-13T04:32:20.519Z,7.07
2017-04-13T04:33:20.202Z,7.12
2017-04-13T04:34:20.499Z,7.09
2017-04-13T04:35:20.490Z,7.07
2017-04-13T04:36:20.476Z,7.1
2017-04-13T04:37:20.472Z,7.17
2017-04-13T04:38:20.454Z,7.17
2017-04-13T04:39:20.451Z,7.23
2017-04-13T04:40:20.434Z,7.23
2017-04-13T04:41:20.682Z,7.15
2017-04-13T04:42:20.413Z,7.23
2017-04-13T04:43:20.409Z,7.17
2017-04-13T04:44:20.393Z,7.27
2017-04-13T04:45:20.383Z,7.24
2017-04-13T04:46:20.373Z,7.27
2017-04-13T04:47:20.363Z,7.31
2017-04-13T04:48:20.354Z,7.35
2017-04-13T04:49:20.346Z,7.34
2017-04-13T04:50:20.337Z,7.48
2017-04-13T04:51:20.327Z,7.52
2017-04-13T04:52:20.312Z,7.48
2017-04-13T04:53:19.998Z,7.55
2017-04-13T04:54:20.291Z,7.63
2017-04-13T04:55:20.291Z,7.68
2017-04-13T04:56:20.274Z,7.74
2017-04-13T04:57:20.262Z,7.79
2017-04-13T04:58:20.252Z,7.85
2017-04-13T04:59:20.255Z,7.97
2017-04-13T05:00:20.234Z,8.01
2017-04-13T05:01:20.234Z,8.05
2017-04-13T05:02:20.216Z,8.02
2017-04-13T05:03:20.205Z,8.12
2017-04-13T05:04:20.201Z,8.1
2017-04-13T05:05:20.187Z,8.3
2017-04-13T05:06:20.184Z,8.29
2017-04-13T05:07:20.165Z,8.36
2017-04-13T05:08:20.155Z,8.25
2017-04-13T05:09:20.147Z,8.33
2017-04-13T05:10:20.139Z,8.36
2017-04-13T05:11:20.130Z,8.33
2017-04-13T05:12:20.116Z,8.34
2017-04-13T05:13:20.110Z,8.38
2017-04-13T05:14:20.097Z,8.41
2017-04-13T05:15:20.092Z,8.5
2017-04-13T05:16:20.080Z,8.61
2017-04-13T05:17:20.070Z,8.65
2017-04-13T05:18:20.062Z,8.83
2017-04-13T05:19:20.054Z,9.01
2017-04-13T05:20:20.043Z,9.18
2017-04-13T05:21:20.035Z,9.38
2017-04-13T05:22:20.030Z,9.47
2017-04-13T05:23:20.016Z,9.74
2017-04-13T05:24:20.014Z,9.83
2017-04-13T05:25:20.002Z,10.12
2017-04-13T05:26:19.995Z,10.09
2017-04-13T05:27:19.983Z,10.22
2017-04-13T05:28:19.977Z,10.32
2017-04-13T05:29:19.967Z,10.33
2017-04-13T05:30:19.659Z,10.42
2017-04-13T05:31:19.650Z,10.47
2017-04-13T05:32:19.944Z,10.45
2017-04-13T05:33:19.943Z,10.47
2017-04-13T05:34:19.936Z,10.45
2017-04-13T05:35:19.921Z,10.59
2017-04-13T05:36:19.914Z,10.79
2017-04-13T05:37:19.908Z,10.96
2017-04-13T05:38:19.899Z,11.28
2017-04-13T05:39:19.899Z,11.46
2017-04-13T05:40:19.886Z,11.76
2017-04-13T05:41:19.913Z,11.9
2017-04-13T05:42:19.877Z,12.12
2017-04-13T05:43:19.872Z,12.17
2017-04-13T05:44:19.862Z,12.17
2017-04-13T05:45:19.859Z,12.2
2017-04-13T05:46:19.853Z,12.31
2017-04-13T05:47:19.844Z,12.23
2017-04-13T05:48:19.843Z,12.45
2017-04-13T05:49:19.832Z,12.54
2017-04-13T05:50:19.834Z,12.78
2017-04-13T05:51:19.825Z,13.04
2017-04-13T05:52:19.820Z,13.22
2017-04-13T05:53:19.817Z,13.57
2017-04-13T05:54:19.507Z,13.81
2017-04-13T05:55:19.805Z,14.14
2017-04-13T05:56:19.802Z,14.45
2017-04-13T05:57:19.798Z,14.73
2017-04-13T05:58:19.799Z,14.95
2017-04-13T05:59:19.487Z,15.19
2017-04-13T06:00:19.792Z,15.39
2017-04-13T06:01:19.791Z,15.49
2017-04-13T06:02:19.786Z,15.92
2017-04-13T06:03:19.781Z,16.14
2017-04-13T06:04:19.777Z,16.3
2017-04-13T06:05:19.776Z,16.73
2017-04-13T06:06:19.774Z,16.89
2017-04-13T06:07:19.772Z,17.12
2017-04-13T06:08:19.771Z,17.31
2017-04-13T06:09:19.771Z,17.37
2017-04-13T06:10:19.770Z,17.51
2017-04-13T06:11:19.770Z,17.72
2017-04-13T06:12:19.769Z,17.9
2017-04-13T06:13:19.770Z,18.14
2017-04-13T06:14:19.771Z,18.27
2017-04-13T06:15:19.771Z,18.57
2017-04-13T06:16:19.774Z,18.8
2017-04-13T06:17:19.773Z,18.95
2017-04-13T06:18:19.776Z,19.16
2017-04-13T06:19:19.779Z,19.4
2017-04-13T06:20:19.778Z,19.61
2017-04-13T06:21:19.781Z,19.88
2017-04-13T06:22:19.789Z,20.03
2017-04-13T06:23:19.786Z,20.18
2017-04-13T06:24:19.787Z,20.16
2017-04-13T06:25:19.489Z,20.14
2017-04-13T06:26:19.801Z,20.16
2017-04-13T06:27:19.797Z,20.14
2017-04-13T06:28:19.801Z,20.23
2017-04-13T06:29:19.804Z,20.23
2017-04-13T06:30:19.807Z,20.39
2017-04-13T06:31:19.811Z,20.39
2017-04-13T06:32:19.818Z,20.51
2017-04-13T06:33:19.821Z,20.67
2017-04-13T06:34:19.823Z,20.64
2017-04-13T06:35:19.833Z,20.73
2017-04-13T06:36:19.832Z,20.8
2017-04-13T06:37:19.838Z,20.97
2017-04-13T06:38:19.843Z,21.1
2017-04-13T06:39:19.854Z,21.24
2017-04-13T06:40:19.853Z,21.46
2017-04-13T06:41:19.857Z,21.5
2017-04-13T06:42:19.862Z,21.58
2017-04-13T06:43:19.870Z,21.59
2017-04-13T06:44:19.872Z,21.44
2017-04-13T06:45:19.879Z,21.46
2017-04-13T06:46:19.886Z,21.52
2017-04-13T06:47:19.589Z,21.58
2017-04-13T06:48:19.896Z,21.49
2017-04-13T06:49:19.903Z,21.49
2017-04-13T06:50:19.913Z,21.49
2017-04-13T06:51:19.918Z,21.42
2017-04-13T06:52:19.922Z,21.37
2017-04-13T06:53:19.926Z,21.14
2017-04-13T06:54:19.934Z,20.79
2017-04-13T06:55:19.938Z,20.62
2017-04-13T06:56:19.641Z,20.41
2017-04-13T06:57:19.952Z,20.35
2017-04-13T06:58:19.950Z,20.51
2017-04-13T06:59:19.958Z,20.54
2017-04-13T07:00:19.965Z,20.5
2017-04-13T07:01:19.968Z,20.32
2017-04-13T07:02:19.969Z,20.29
2017-04-13T07:03:19.974Z,20.16
2017-04-13T07:04:19.985Z,20.03
2017-04-13T07:05:19.983Z,20.02
2017-04-13T07:06:19.987Z,20.02
2017-04-13T07:07:19.993Z,20.08
2017-04-13T07:08:19.994Z,20.17
2017-04-13T07:09:19.999Z,20.26
2017-04-13T07:10:20.003Z,20.52
2017-04-13T07:11:20.007Z,20.82
2017-04-13T07:12:20.017Z,21.12
2017-04-13T07:13:20.014Z,21.34
2017-04-13T07:14:20.024Z,21.49
2017-04-13T07:15:20.027Z,21.5
2017-04-13T07:16:20.034Z,21.59
2017-04-13T07:17:20.037Z,21.68
2017-04-13T07:18:20.041Z,21.88
2017-04-13T07:19:20.046Z,22.07
2017-04-13T07:20:20.053Z,22.14
2017-04-13T07:21:20.065Z,22.2
2017-04-13T07:22:20.067Z,22.22
2017-04-13T07:23:20.072Z,22.15
2017-04-13T07:24:20.078Z,21.92
2017-04-13T07:25:20.093Z,21.69
2017-04-13T07:26:20.092Z,21.49
2017-04-13T07:27:20.096Z,21.22
2017-04-13T07:28:20.106Z,21.14
2017-04-13T07:29:19.803Z,20.8
2017-04-13T07:30:19.810Z,20.52
2017-04-13T07:31:19.813Z,20.31
2017-04-13T07:32:19.821Z,20.23
2017-04-13T07:33:19.826Z,20.05
2017-04-13T07:34:20.176Z,19.86
2017-04-13T07:35:19.833Z,19.71
2017-04-13T07:36:19.533Z,19.61
2017-04-13T07:37:19.878Z,19.66
2017-04-13T07:38:20.149Z,19.58
2017-04-13T07:39:20.150Z,19.51
2017-04-13T07:40:20.156Z,19.48
2017-04-13T07:41:19.860Z,19.46
2017-04-13T07:42:19.859Z,19.41
2017-04-13T07:43:19.862Z,19.19
2017-04-13T07:44:20.170Z,19.06
2017-04-13T07:45:20.173Z,18.91
2017-04-13T07:46:20.179Z,18.69
2017-04-13T07:47:19.877Z,18.48
2017-04-13T07:48:19.879Z,18.32
2017-04-13T07:49:19.884Z,18.18
2017-04-13T07:50:20.188Z,18.25
2017-04-13T07:51:20.196Z,18.27
2017-04-13T07:52:20.196Z,18.45
2017-04-13T07:53:19.895Z,18.65
2017-04-13T07:54:20.200Z,18.94
2017-04-13T07:55:19.905Z,19.06
2017-04-13T07:56:19.906Z,19.18
2017-04-13T07:57:19.909Z,19.11
2017-04-13T07:58:20.215Z,19.13
2017-04-13T07:59:20.220Z,19.26
2017-04-13T08:00:19.922Z,19.29
2017-04-13T08:01:19.924Z,19.28
2017-04-13T08:02:20.232Z,18.99
2017-04-13T08:03:20.234Z,18.91
2017-04-13T08:04:20.236Z,18.8
2017-04-13T08:05:20.239Z,18.69
2017-04-13T08:06:19.942Z,18.73
2017-04-13T08:07:20.249Z,18.69
2017-04-13T08:08:19.948Z,18.7
2017-04-13T08:09:20.252Z,18.67
2017-04-13T08:10:20.254Z,18.88
2017-04-13T08:11:19.957Z,18.95
2017-04-13T08:12:20.264Z,18.87
2017-04-13T08:13:20.267Z,18.94
2017-04-13T08:14:20.269Z,19
2017-04-13T08:15:19.971Z,19.07
2017-04-13T08:16:20.275Z,19.08
2017-04-13T08:17:20.284Z,19.07
2017-04-13T08:18:20.286Z,19.18
2017-04-13T08:19:19.981Z,19
2017-04-13T08:20:20.290Z,18.9
2017-04-13T08:21:20.296Z,18.76
2017-04-13T08:22:20.297Z,18.54
2017-04-13T08:23:20.299Z,18.37
2017-04-13T08:24:19.998Z,18.23
2017-04-13T08:25:20.300Z,18.02
2017-04-13T08:26:20.299Z,17.97
2017-04-13T08:27:20.302Z,17.78
2017-04-13T08:28:20.302Z,17.7
2017-04-13T08:29:20.304Z,17.62
2017-04-13T08:30:20.308Z,17.41
2017-04-13T08:31:20.006Z,17.15
2017-04-13T08:32:20.306Z,17.01
2017-04-13T08:33:20.304Z,16.75
2017-04-13T08:34:20.305Z,16.6
2017-04-13T08:35:20.308Z,16.45
2017-04-13T08:36:20.004Z,16.34
2017-04-13T08:37:19.700Z,16.25
2017-04-13T08:38:20.306Z,16.27
2017-04-13T08:39:20.305Z,16.23
2017-04-13T08:40:20.307Z,16.08
2017-04-13T08:41:19.998Z,15.93
2017-04-13T08:42:20.303Z,15.78
2017-04-13T08:43:19.995Z,15.68
2017-04-13T08:44:19.992Z,15.51
2017-04-13T08:45:20.003Z,15.44
2017-04-13T08:46:20.292Z,15.28
2017-04-13T08:47:20.288Z,15.2
2017-04-13T08:49:20.282Z,15.06
2017-04-13T08:50:19.673Z,14.92
2017-04-13T08:51:19.973Z,14.89
2017-04-13T08:52:20.279Z,14.88
2017-04-13T08:53:19.966Z,14.95
2017-04-13T08:54:19.967Z,15.13
2017-04-13T08:55:19.960Z,15.21
2017-04-13T08:56:19.956Z,15.31
2017-04-13T08:57:19.953Z,15.34
2017-04-13T08:58:19.971Z,15.44
2017-04-13T08:59:20.256Z,15.51
2017-04-13T09:00:19.642Z,15.5
2017-04-13T09:01:20.249Z,15.38
2017-04-13T09:02:20.240Z,15.44
2017-04-13T09:03:20.238Z,15.44
2017-04-13T09:04:19.629Z,15.44
2017-04-13T09:05:20.232Z,15.53
2017-04-13T09:06:20.227Z,15.57
2017-04-13T09:07:20.476Z,15.72
2017-04-13T09:08:19.614Z,15.72
2017-04-13T09:09:20.220Z,15.72
2017-04-13T09:10:19.911Z,15.76
2017-04-13T09:11:20.255Z,15.78
2017-04-13T09:12:20.218Z,15.84
2017-04-13T09:13:20.206Z,15.94
2017-04-13T09:14:20.199Z,15.97
2017-04-13T09:15:20.199Z,15.8
2017-04-13T09:16:20.196Z,15.68
2017-04-13T09:17:20.196Z,15.72
2017-04-13T09:18:20.186Z,15.5
2017-04-13T09:19:20.186Z,15.43
2017-04-13T09:20:20.184Z,15.39
2017-04-13T09:21:20.183Z,15.36
2017-04-13T09:22:19.880Z,15.32
2017-04-13T09:23:20.179Z,15.25
2017-04-13T09:24:20.169Z,15.41
2017-04-13T09:25:20.168Z,15.41
2017-04-13T09:26:20.164Z,15.39
2017-04-13T09:27:20.163Z,15.51
2017-04-13T09:28:20.182Z,15.56
2017-04-13T09:29:20.153Z,15.51
2017-04-13T09:30:20.147Z,15.6
2017-04-13T09:31:20.149Z,15.56
2017-04-13T09:32:20.142Z,15.53
2017-04-13T09:33:20.138Z,15.56
2017-04-13T09:34:19.836Z,15.53
2017-04-13T09:35:20.139Z,15.5
2017-04-13T09:36:19.835Z,15.49
2017-04-13T09:37:20.174Z,15.43
2017-04-13T09:38:19.516Z,15.47
2017-04-13T09:39:19.512Z,15.38
2017-04-13T09:40:20.116Z,15.34
2017-04-13T09:41:20.119Z,15.16
2017-04-13T09:42:20.110Z,15.25
2017-04-13T09:43:20.106Z,15.23
2017-04-13T09:44:20.104Z,15.16
2017-04-13T09:45:20.107Z,15.16
2017-04-13T09:46:20.096Z,15.21
2017-04-13T09:47:20.096Z,15.23
2017-04-13T09:48:20.090Z,15.34
2017-04-13T09:49:20.086Z,15.38
2017-04-13T09:50:20.083Z,15.27
2017-04-13T09:51:20.089Z,15.23
2017-04-13T09:52:20.080Z,15.25
2017-04-13T09:53:20.072Z,15.14
2017-04-13T09:54:20.080Z,15.1
2017-04-13T09:55:20.069Z,14.94
2017-04-13T09:56:19.759Z,14.94
2017-04-13T09:57:19.755Z,14.84
2017-04-13T09:58:20.054Z,14.94
2017-04-13T09:59:20.048Z,14.99
2017-04-13T10:00:20.046Z,15.03
2017-04-13T10:01:19.756Z,15.02
2017-04-13T10:02:20.037Z,14.95
2017-04-13T10:03:19.730Z,14.91
2017-04-13T10:04:20.069Z,14.88
2017-04-13T10:05:20.075Z,14.84
2017-04-13T10:06:20.033Z,14.84
2017-04-13T10:07:19.720Z,14.86
2017-04-13T10:08:19.714Z,14.89
2017-04-13T10:09:20.012Z,14.95
2017-04-13T10:10:19.704Z,14.83
2017-04-13T10:11:19.701Z,14.88
2017-04-13T10:12:19.701Z,14.86
2017-04-13T10:13:19.995Z,14.81
2017-04-13T10:14:19.690Z,14.81
2017-04-13T10:15:19.684Z,14.89
2017-04-13T10:16:19.981Z,15.06
2017-04-13T10:17:19.373Z,15.19
2017-04-13T10:18:19.370Z,15.34
2017-04-13T10:19:19.970Z,15.44
2017-04-13T10:20:19.969Z,15.46
2017-04-13T10:21:19.359Z,15.46
2017-04-13T10:22:19.962Z,15.39
2017-04-13T10:23:19.654Z,15.44
2017-04-13T10:24:19.954Z,15.44
2017-04-13T10:25:19.952Z,15.35
2017-04-13T10:26:19.949Z,15.43
2017-04-13T10:27:19.944Z,15.41
2017-04-13T10:28:19.939Z,15.49
2017-04-13T10:29:19.937Z,15.43
2017-04-13T10:30:19.933Z,15.43
2017-04-13T10:31:19.625Z,15.44
2017-04-13T10:32:19.925Z,15.54
2017-04-13T10:33:19.923Z,15.51
2017-04-13T10:34:19.917Z,15.68
2017-04-13T10:35:19.911Z,15.64
2017-04-13T10:36:19.911Z,15.72
2017-04-13T10:37:19.909Z,15.68
2017-04-13T10:38:19.904Z,15.71
2017-04-13T10:39:19.905Z,15.59
2017-04-13T10:40:19.897Z,15.68
2017-04-13T10:41:19.897Z,15.69
2017-04-13T10:42:19.890Z,15.76
2017-04-13T10:43:19.886Z,15.8
2017-04-13T10:44:19.581Z,15.94
2017-04-13T10:45:19.881Z,15.96
2017-04-13T10:47:57.350Z,16.11
2017-04-13T10:48:43.039Z,16.12
2017-04-13T10:49:43.332Z,16.17
2017-04-13T10:50:42.428Z,16.27
2017-04-13T10:51:43.029Z,16.31
2017-04-13T10:52:43.029Z,16.23
2017-04-13T10:53:42.723Z,16.25
2017-04-13T10:54:43.022Z,16.15
2017-04-13T10:55:43.021Z,16.05
2017-04-13T10:56:42.407Z,16.07
2017-04-13T10:57:42.706Z,15.86
2017-04-13T10:58:43.007Z,15.75
2017-04-13T10:59:42.399Z,15.57
2017-04-13T11:00:42.699Z,15.51
2017-04-13T11:01:42.996Z,15.5
2017-04-13T11:02:42.993Z,15.35
2017-04-13T11:03:42.989Z,15.36
2017-04-13T11:04:42.985Z,15.34
2017-04-13T11:05:42.982Z,15.44
2017-04-13T11:06:42.992Z,15.47
2017-04-13T11:07:42.978Z,15.41
2017-04-13T11:08:42.974Z,15.5
2017-04-13T11:09:42.976Z,15.54
2017-04-13T11:10:42.964Z,15.62
2017-04-13T11:11:42.960Z,15.69
2017-04-13T11:12:42.659Z,15.74
2017-04-13T11:13:42.956Z,15.78
2017-04-13T11:14:42.950Z,15.87
2017-04-13T11:15:42.947Z,15.87
2017-04-13T11:16:43.146Z,15.9
2017-04-13T11:17:42.940Z,15.86
2017-04-13T11:18:42.943Z,15.87
2017-04-13T11:19:42.943Z,15.76
2017-04-13T11:20:42.930Z,15.72
2017-04-13T11:21:42.622Z,15.75
2017-04-13T11:22:42.924Z,15.72
2017-04-13T11:23:42.918Z,15.6
2017-04-13T11:24:42.915Z,15.54
2017-04-13T11:25:42.912Z,15.47
2017-04-13T11:26:42.910Z,15.47
2017-04-13T11:27:42.904Z,15.53
2017-04-13T11:28:42.638Z,15.54
2017-04-13T11:29:42.897Z,15.51
2017-04-13T11:30:42.892Z,15.44
2017-04-13T11:31:42.588Z,15.43
2017-04-13T11:32:42.887Z,15.47
2017-04-13T11:33:42.880Z,15.5
2017-04-13T11:34:42.574Z,15.6
2017-04-13T11:35:42.878Z,15.67
2017-04-13T11:36:42.873Z,15.65
2017-04-13T11:37:42.869Z,15.67
2017-04-13T11:38:42.862Z,15.62
2017-04-13T11:39:42.861Z,15.54
2017-04-13T11:40:42.855Z,15.53
2017-04-13T11:41:42.851Z,15.54
2017-04-13T11:42:42.847Z,15.6
2017-04-13T11:43:42.240Z,15.59
2017-04-13T11:44:42.543Z,15.78
2017-04-13T11:45:42.845Z,15.93
2017-04-13T11:46:42.834Z,16.05
2017-04-13T11:47:42.526Z,16.27
2017-04-13T11:48:42.832Z,16.35
2017-04-13T11:49:42.522Z,16.49
2017-04-13T11:50:42.820Z,16.56
2017-04-13T11:51:42.513Z,16.7
2017-04-13T11:52:42.511Z,16.78
2017-04-13T11:53:42.508Z,16.85
2017-04-13T11:54:42.807Z,16.85
2017-04-13T11:55:42.829Z,16.94
2017-04-13T11:56:42.500Z,17.07
2017-04-13T11:57:42.802Z,17.07
2017-04-13T11:58:42.797Z,17.22
2017-04-13T11:59:42.791Z,17.3
2017-04-13T12:00:42.789Z,17.31
2017-04-13T12:01:42.788Z,17.54
2017-04-13T12:02:42.988Z,17.62
2017-04-13T12:03:42.779Z,17.74
2017-04-13T12:04:42.475Z,17.79
2017-04-13T12:05:42.478Z,17.92
2017-04-13T12:06:42.772Z,17.9
2017-04-13T12:07:42.768Z,17.87
2017-04-13T12:08:42.768Z,17.9
2017-04-13T12:09:42.764Z,18.07
2017-04-13T12:10:42.763Z,18.14
2017-04-13T12:11:42.761Z,18.23
2017-04-13T12:12:42.768Z,18.32
2017-04-13T12:13:42.455Z,18.36
2017-04-13T12:14:42.753Z,18.3
2017-04-13T12:15:42.753Z,18.29
2017-04-13T12:16:42.447Z,18.18
2017-04-13T12:17:42.750Z,18.15
2017-04-13T12:18:42.746Z,18.25
2017-04-13T12:19:42.747Z,18.35
2017-04-13T12:20:42.746Z,18.18
2017-04-13T12:21:42.740Z,18.2
2017-04-13T12:22:42.741Z,18.18
2017-04-13T12:23:42.737Z,17.99
2017-04-13T12:24:42.736Z,17.99
2017-04-13T12:25:42.735Z,17.9
2017-04-13T12:26:42.734Z,17.89
2017-04-13T12:27:42.731Z,17.81
2017-04-13T12:28:42.736Z,17.87
2017-04-13T12:29:42.728Z,17.9
2017-04-13T12:30:42.424Z,17.86
2017-04-13T12:31:42.422Z,17.87
2017-04-13T12:32:42.421Z,17.84
2017-04-13T12:33:42.729Z,17.84
2017-04-13T12:34:42.723Z,17.64
2017-04-13T12:35:42.431Z,17.63
2017-04-13T12:36:42.718Z,17.63
2017-04-13T12:37:42.715Z,17.58
2017-04-13T12:38:42.721Z,17.4
2017-04-13T12:39:42.723Z,17.36
2017-04-13T12:40:42.709Z,17.12
2017-04-13T12:41:42.404Z,17.06
2017-04-13T12:42:42.401Z,17
2017-04-13T12:43:42.701Z,16.79
2017-04-13T12:44:42.699Z,16.7
2017-04-13T12:45:42.394Z,16.5
2017-04-13T12:46:42.694Z,16.42
2017-04-13T12:47:42.693Z,16.39
2017-04-13T12:48:42.691Z,16.25
2017-04-13T12:49:42.081Z,16.15
2017-04-13T12:50:42.685Z,16.04
2017-04-13T12:51:42.681Z,16.01
2017-04-13T12:52:42.680Z,15.94
2017-04-13T12:53:42.676Z,15.84
2017-04-13T12:54:42.681Z,15.76
2017-04-13T12:55:42.672Z,15.75
2017-04-13T12:56:42.666Z,15.71
2017-04-13T12:57:42.660Z,15.68
2017-04-13T12:58:42.659Z,15.51
2017-04-13T12:59:42.655Z,15.5
2017-04-13T13:00:42.658Z,15.6
2017-04-13T13:01:42.586Z,15.53
2017-04-13T13:02:42.641Z,15.54
2017-04-13T13:03:42.338Z,15.53
2017-04-13T13:04:42.636Z,15.47
2017-04-13T13:05:42.632Z,15.46
2017-04-13T13:06:42.324Z,15.46
2017-04-13T13:07:42.628Z,15.44
2017-04-13T13:08:42.618Z,15.5